Time;durP1;ratioP1;P1;durP2;ratioP2;P2;SDS_P1;SDS_P2;PMS_P1;PMS_P2;Temp;Humidity;BMP_temperature;BMP_pressure;BME280_temperature;BME280_humidity;BME280_pressure;Samples;Min_cycle;Max_cycle;Signal;HPM_P1;HPM_P2
2022/09/07 00:00:06;;;;;;;7.43;3.30;;;20.90;99.90;;;;;;12427932;28;20046;-32
2022/09/07 00:06:10;;;;;;;5.65;3.40;;;20.90;99.90;;;;;;12376939;28;20451;-33
2022/09/07 00:12:12;;;;;;;7.07;3.38;;;21.00;99.90;;;;;;12433933;28;20053;-33
2022/09/07 00:18:14;;;;;;;5.75;3.05;;;21.10;99.90;;;;;;12435070;28;20148;-32
2022/09/07 00:24:16;;;;;;;5.72;3.35;;;21.20;99.90;;;;;;12435248;28;20046;-32
2022/09/07 00:30:18;;;;;;;8.35;3.75;;;21.10;99.90;;;;;;12431216;28;20176;-33
2022/09/07 00:36:21;;;;;;;5.78;3.88;;;21.20;99.90;;;;;;12438613;28;20153;-33
2022/09/07 00:42:23;;;;;;;5.95;3.92;;;21.00;99.90;;;;;;12436238;28;20196;-32
2022/09/07 00:48:35;;;;;;;7.65;4.00;;;20.90;99.90;;;;;;12432966;28;20505;-33
2022/09/07 00:54:45;;;;;;;7.32;3.42;;;20.80;99.90;;;;;;12436924;28;20050;-33
2022/09/07 01:00:48;;;;;;;5.22;3.67;;;20.40;99.90;;;;;;12432538;28;20549;-33
2022/09/07 01:06:52;;;;;;;5.00;3.67;;;20.20;99.90;;;;;;12430262;28;20045;-33
2022/09/07 01:12:54;;;;;;;8.32;3.13;;;20.20;99.90;;;;;;12431955;28;20132;-33
2022/09/07 01:19:24;;;;;;;5.13;3.20;;;20.40;99.90;;;;;;12435853;28;20129;-33
2022/09/07 01:25:54;;;;;;;5.82;3.35;;;20.50;99.90;;;;;;12437037;28;20046;-33
2022/09/07 01:31:56;;;;;;;4.30;3.15;;;20.70;99.90;;;;;;12438407;28;20038;-33
2022/09/07 01:38:43;;;;;;;5.40;3.47;;;20.70;99.90;;;;;;12442336;28;20050;-33
2022/09/07 01:45:10;;;;;;;4.35;3.15;;;20.80;99.90;;;;;;12418518;28;20038;-33
2022/09/07 01:51:12;;;;;;;4.38;2.83;;;20.90;99.90;;;;;;12442834;28;20046;-33
2022/09/07 01:57:20;;;;;;;5.88;3.33;;;20.90;99.90;;;;;;12445640;28;20133;-33
2022/09/07 02:03:38;;;;;;;4.88;3.55;;;20.60;99.90;;;;;;12441026;28;20628;-33
2022/09/07 02:09:58;;;;;;;8.18;3.50;;;20.70;99.90;;;;;;12436984;28;20042;-34
2022/09/07 02:16:05;;;;;;;6.75;3.60;;;20.90;99.90;;;;;;12441404;28;20046;-34
2022/09/07 02:22:18;;;;;;;8.57;3.90;;;20.70;99.90;;;;;;12442811;28;20567;-33
2022/09/07 02:28:25;;;;;;;5.85;3.53;;;20.40;99.90;;;;;;12437000;28;20145;-33
2022/09/07 02:34:27;;;;;;;6.75;3.90;;;20.20;99.90;;;;;;12424975;28;20046;-33
2022/09/07 02:40:29;;;;;;;6.88;3.63;;;20.10;99.90;;;;;;12434713;28;20076;-33
2022/09/07 02:47:19;;;;;;;6.90;3.40;;;19.90;99.90;;;;;;12438607;28;20095;-33
2022/09/07 02:53:41;;;;;;;7.38;3.08;;;19.50;99.90;;;;;;12435561;28;20078;-33
2022/09/07 03:00:00;;;;;;;7.10;2.50;;;19.40;99.90;;;;;;12436979;28;20103;-33
2022/09/07 03:06:06;;;;;;;5.97;2.47;;;19.20;99.90;;;;;;12434701;28;20092;-33
2022/09/07 03:12:09;;;;;;;5.22;2.83;;;19.10;99.90;;;;;;12436461;28;20082;-33
2022/09/07 03:18:11;;;;;;;7.85;2.88;;;19.20;99.90;;;;;;12434096;28;20058;-33
2022/09/07 03:24:13;;;;;;;4.68;2.88;;;19.20;99.90;;;;;;12436189;28;20180;-33
2022/09/07 03:30:15;;;;;;;9.05;3.30;;;19.20;99.90;;;;;;12436967;28;20049;-33
2022/09/07 03:36:17;;;;;;;7.05;3.08;;;19.20;99.90;;;;;;12430809;28;20065;-33
2022/09/07 03:42:19;;;;;;;4.93;2.88;;;19.30;99.90;;;;;;12428444;28;20099;-33
2022/09/07 03:48:20;;;;;;;6.00;2.75;;;19.20;99.90;;;;;;12439652;28;20068;-33
2022/09/07 03:54:22;;;;;;;8.20;3.20;;;19.10;99.90;;;;;;12435948;28;20136;-33
2022/09/07 04:00:24;;;;;;;9.40;3.20;;;19.00;99.90;;;;;;12436244;28;20517;-33
2022/09/07 04:06:26;;;;;;;7.07;3.55;;;18.90;99.90;;;;;;12427704;28;20091;-33
2022/09/07 04:12:28;;;;;;;8.02;3.30;;;19.00;99.90;;;;;;12431296;28;20593;-33
2022/09/07 04:18:30;;;;;;;4.82;3.38;;;18.90;99.90;;;;;;12429577;28;20062;-33
2022/09/07 04:24:32;;;;;;;8.70;4.10;;;18.90;99.90;;;;;;12433290;28;20034;-33
2022/09/07 04:30:34;;;;;;;8.52;4.45;;;18.40;99.90;;;;;;12428257;28;20176;-32
2022/09/07 04:36:36;;;;;;;8.93;4.13;;;18.20;99.90;;;;;;12428155;28;20801;-33
2022/09/07 04:42:38;;;;;;;11.68;4.55;;;18.10;99.90;;;;;;12429465;28;20058;-33
2022/09/07 04:48:40;;;;;;;5.10;3.70;;;18.10;99.90;;;;;;12433707;28;20088;-33
2022/09/07 04:54:42;;;;;;;4.75;3.92;;;18.00;99.90;;;;;;12428822;28;20099;-33
2022/09/07 05:00:44;;;;;;;8.70;3.70;;;18.20;99.90;;;;;;12432206;28;20100;-33
2022/09/07 05:06:46;;;;;;;7.93;3.95;;;18.10;99.90;;;;;;12435564;28;20095;-32
2022/09/07 05:12:47;;;;;;;7.90;3.47;;;18.20;99.90;;;;;;12439124;28;20152;-33
2022/09/07 05:18:51;;;;;;;6.47;3.28;;;18.20;99.90;;;;;;12431276;28;20462;-33
2022/09/07 05:24:53;;;;;;;5.28;3.47;;;18.40;99.90;;;;;;12440731;28;20115;-32
2022/09/07 05:31:01;;;;;;;9.13;3.72;;;18.50;99.90;;;;;;12441216;28;20050;-33
2022/09/07 05:37:20;;;;;;;5.88;4.03;;;18.40;99.90;;;;;;12435611;28;20042;-32
2022/09/07 05:43:22;;;;;;;6.93;3.78;;;18.30;99.90;;;;;;12443023;28;20046;-33
2022/09/07 05:49:24;;;;;;;5.63;3.63;;;18.30;99.90;;;;;;12438671;28;20081;-32
2022/09/07 05:55:26;;;;;;;5.47;4.05;;;18.40;99.90;;;;;;12437987;28;20045;-32
2022/09/07 06:01:31;;;;;;;6.05;4.30;;;18.50;99.90;;;;;;12439682;28;20050;-33
2022/09/07 06:07:33;;;;;;;6.68;4.10;;;18.50;99.90;;;;;;12435471;28;20702;-32
2022/09/07 06:13:35;;;;;;;5.75;4.20;;;18.50;99.90;;;;;;12415998;28;20099;-33
2022/09/07 06:19:37;;;;;;;6.93;4.13;;;18.50;99.90;;;;;;12431315;28;20140;-32
2022/09/07 06:25:47;;;;;;;6.00;4.13;;;18.60;99.90;;;;;;12432751;28;20046;-32
2022/09/07 06:31:49;;;;;;;8.70;4.70;;;18.60;99.90;;;;;;12435165;28;20103;-33
2022/09/07 06:38:10;;;;;;;5.65;3.80;;;18.60;99.90;;;;;;12424531;28;20053;-33
2022/09/07 06:44:12;;;;;;;7.75;4.32;;;18.60;99.90;;;;;;12435298;28;20129;-33
2022/09/07 06:50:16;;;;;;;7.90;4.28;;;18.60;99.90;;;;;;12435780;28;20046;-33
2022/09/07 06:56:18;;;;;;;8.20;3.70;;;18.60;99.90;;;;;;12442028;28;20053;-33
2022/09/07 07:02:20;;;;;;;8.65;3.70;;;18.80;99.90;;;;;;12442674;28;20172;-33
2022/09/07 07:08:24;;;;;;;8.55;4.18;;;18.80;99.90;;;;;;12431844;28;20133;-33
2022/09/07 07:14:26;;;;;;;5.97;3.20;;;18.80;99.90;;;;;;12435660;28;20053;-33
2022/09/07 07:20:30;;;;;;;6.70;3.65;;;18.80;99.90;;;;;;12423232;28;20061;-33
2022/09/07 07:26:32;;;;;;;5.07;4.03;;;18.90;99.90;;;;;;12437803;28;20112;-33
2022/09/07 07:32:36;;;;;;;5.57;2.95;;;19.00;99.90;;;;;;12426726;28;20050;-33
2022/09/07 07:38:39;;;;;;;;;;;19.20;99.90;;;;;;12433295;28;20080;-33
2022/09/07 07:45:01;;;;;;;5.45;2.95;;;19.30;99.90;;;;;;12430644;28;19928;-33
2022/09/07 07:51:23;;;;;;;7.07;3.00;;;19.50;99.90;;;;;;12430921;28;20057;-32
2022/09/07 07:57:25;;;;;;;4.07;2.50;;;19.60;99.90;;;;;;12433046;28;20453;-33
2022/09/07 08:03:27;;;;;;;6.78;2.78;;;19.70;99.90;;;;;;12428980;28;20045;-33
2022/09/07 08:09:29;;;;;;;3.40;2.40;;;19.80;99.90;;;;;;12431356;28;20068;-33
2022/09/07 08:15:31;;;;;;;7.20;2.72;;;20.00;99.90;;;;;;12429729;28;20045;-33
2022/09/07 08:21:33;;;;;;;5.30;2.13;;;20.20;99.90;;;;;;12427093;28;20057;-33
2022/09/07 08:27:34;;;;;;;3.45;1.80;;;20.40;99.90;;;;;;12433789;28;20046;-33
2022/09/07 08:33:37;;;;;;;2.53;1.70;;;20.70;99.90;;;;;;12436507;28;20574;-33
2022/09/07 08:39:39;;;;;;;3.85;1.73;;;20.90;99.90;;;;;;12443002;28;20070;-33
2022/09/07 08:45:51;;;;;;;4.45;2.33;;;21.00;99.90;;;;;;12433067;28;20049;-33
2022/09/07 08:51:59;;;;;;;3.33;1.70;;;21.20;99.90;;;;;;12439364;28;20057;-34
2022/09/07 08:58:35;;;;;;;8.55;1.50;;;21.40;99.90;;;;;;12437516;28;20506;-33
2022/09/07 09:04:52;;;;;;;4.60;1.30;;;21.40;99.90;;;;;;12435646;28;20073;-33
2022/09/07 09:11:20;;;;;;;4.45;1.33;;;21.50;99.90;;;;;;12436458;28;20054;-33
2022/09/07 09:17:32;;;;;;;3.78;1.60;;;21.70;99.90;;;;;;12439227;28;20042;-33
2022/09/07 09:23:39;;;;;;;5.88;1.73;;;21.90;99.90;;;;;;12437660;28;20085;-33
2022/09/07 09:29:41;;;;;;;6.78;1.58;;;22.10;99.90;;;;;;12446457;28;20081;-33
2022/09/07 09:35:45;;;;;;;3.95;1.42;;;22.20;99.90;;;;;;12437494;28;20514;-33
2022/09/07 09:41:48;;;;;;;3.60;1.80;;;22.50;99.90;;;;;;12438758;28;20532;-34
2022/09/07 09:47:51;;;;;;;;;;;22.80;99.90;;;;;;12441343;28;20042;-33
2022/09/07 09:54:01;;;;;;;6.00;2.03;;;22.80;99.90;;;;;;12442320;28;19932;-33
2022/09/07 10:00:04;;;;;;;3.47;1.60;;;23.00;99.90;;;;;;12434723;28;20050;-33
2022/09/07 10:06:18;;;;;;;2.20;1.40;;;23.10;99.90;;;;;;12435209;28;20050;-33
2022/09/07 10:12:33;;;;;;;3.53;1.45;;;23.10;99.90;;;;;;12435735;28;20041;-33
2022/09/07 10:18:38;;;;;;;3.58;1.25;;;22.90;99.90;;;;;;12441238;28;20089;-33
2022/09/07 10:24:40;;;;;;;7.55;1.73;;;23.00;99.90;;;;;;12431954;28;20038;-33
2022/09/07 10:31:13;;;;;;;5.13;1.40;;;22.80;99.90;;;;;;12433663;28;20139;-33
2022/09/07 10:37:34;;;;;;;4.53;1.42;;;23.00;99.90;;;;;;12433274;28;20072;-33
2022/09/07 10:43:51;;;;;;;4.05;1.30;;;23.10;99.90;;;;;;12437914;28;20052;-33
2022/09/07 10:50:00;;;;;;;2.30;1.15;;;23.30;99.90;;;;;;12432411;28;20050;-33
2022/09/07 10:56:32;;;;;;;2.97;0.90;;;23.60;99.90;;;;;;12434185;28;20057;-33
2022/09/07 11:02:58;;;;;;;2.17;1.08;;;23.70;99.90;;;;;;12422412;28;20046;-33
2022/09/07 11:09:47;;;;;;;2.80;1.23;;;23.70;99.90;;;;;;12426054;28;20052;-33
2022/09/07 11:15:55;;;;;;;3.90;1.20;;;23.60;99.90;;;;;;12433502;28;20046;-33
2022/09/07 11:22:21;;;;;;;3.25;1.50;;;23.40;99.90;;;;;;12410764;28;20486;-33
2022/09/07 11:28:54;;;;;;;3.90;1.20;;;23.80;99.90;;;;;;12438567;28;20053;-33
2022/09/07 11:35:41;;;;;;;7.45;1.05;;;24.00;99.90;;;;;;12412722;28;20038;-33
2022/09/07 11:41:52;;;;;;;3.83;1.20;;;24.20;99.90;;;;;;12429825;28;20050;-34
2022/09/07 11:48:04;;;;;;;3.40;1.55;;;24.50;99.90;;;;;;12435134;28;20062;-33
2022/09/07 11:54:35;;;;;;;2.88;1.20;;;24.70;99.90;;;;;;12434091;28;20047;-33
2022/09/07 12:01:01;;;;;;;2.42;0.98;;;24.80;99.90;;;;;;12402130;28;20049;-33
2022/09/07 12:07:15;;;;;;;3.00;1.25;;;25.10;99.90;;;;;;12428496;28;20042;-33
2022/09/07 12:13:48;;;;;;;2.40;1.27;;;25.20;99.90;;;;;;12423797;28;20046;-33
2022/09/07 12:20:11;;;;;;;2.90;1.30;;;25.30;99.90;;;;;;12433754;28;20484;-33
2022/09/07 12:26:48;;;;;;;3.17;1.80;;;25.30;99.90;;;;;;12428278;28;20051;-33
2022/09/07 12:32:50;;;;;;;4.20;1.70;;;25.40;99.90;;;;;;12395034;28;20057;-33
2022/09/07 12:39:01;;;;;;;3.50;1.50;;;25.30;99.90;;;;;;12431946;28;20050;-33
2022/09/07 12:45:28;;;;;;;2.35;1.77;;;25.60;99.90;;;;;;12428896;28;20042;-33
2022/09/07 12:51:38;;;;;;;5.22;2.00;;;25.30;99.90;;;;;;12435196;28;20046;-34
2022/09/07 12:58:12;;;;;;;2.80;1.67;;;25.90;99.90;;;;;;12426607;28;20057;-33
2022/09/07 13:04:17;;;;;;;4.00;2.40;;;26.10;99.90;;;;;;12430329;28;20099;-33
2022/09/07 13:10:27;;;;;;;4.70;2.50;;;25.50;99.90;;;;;;12428271;28;20490;-33
2022/09/07 13:16:36;;;;;;;7.05;4.63;;;25.30;99.90;;;;;;12431608;28;20401;-33
2022/09/07 13:23:21;;;;;;;4.50;3.13;;;25.70;99.90;;;;;;12435254;28;20050;-33
2022/09/07 13:29:39;;;;;;;7.32;4.60;;;26.20;99.90;;;;;;12438417;28;20042;-33
2022/09/07 13:35:44;;;;;;;4.93;4.20;;;25.90;99.90;;;;;;12440299;28;20775;-34
2022/09/07 13:41:51;;;;;;;5.90;3.90;;;26.10;99.90;;;;;;12423451;28;20429;-33
2022/09/07 13:48:01;;;;;;;4.95;3.40;;;26.30;99.90;;;;;;12437650;28;20046;-33
2022/09/07 13:54:40;;;;;;;5.00;3.75;;;26.40;99.90;;;;;;12440657;28;20092;-33
2022/09/07 14:00:57;;;;;;;5.30;4.28;;;26.10;99.90;;;;;;12435947;28;20050;-33
2022/09/07 14:07:05;;;;;;;8.00;4.43;;;25.80;99.90;;;;;;12434970;28;20129;-33
2022/09/07 14:13:11;;;;;;;4.47;3.95;;;25.20;99.90;;;;;;12434323;28;20085;-33
2022/09/07 14:19:19;;;;;;;7.55;5.35;;;25.00;99.90;;;;;;12432644;28;20064;-33
2022/09/07 14:25:21;;;;;;;3.55;2.42;;;25.10;99.90;;;;;;12438857;28;20041;-33
2022/09/07 14:31:24;;;;;;;4.32;3.00;;;25.20;99.90;;;;;;12440416;28;20100;-33
2022/09/07 14:37:26;;;;;;;5.30;3.08;;;25.20;99.90;;;;;;12434095;28;20132;-33
2022/09/07 14:43:51;;;;;;;3.92;2.97;;;25.30;99.90;;;;;;12435508;28;20505;-33
2022/09/07 14:49:56;;;;;;;5.47;4.47;;;25.00;99.90;;;;;;12431319;28;20053;-34
2022/09/07 14:56:08;;;;;;;5.53;4.18;;;25.00;99.90;;;;;;12430892;28;20060;-32
2022/09/07 15:02:36;;;;;;;8.23;3.55;;;25.30;99.90;;;;;;12430633;28;20041;-33
2022/09/07 15:08:43;;;;;;;3.85;3.20;;;25.10;99.90;;;;;;12422216;28;20188;-33
2022/09/07 15:14:46;;;;;;;5.28;4.30;;;25.20;99.90;;;;;;12427217;28;20470;-33
2022/09/07 15:20:49;;;;;;;7.05;4.38;;;25.20;99.90;;;;;;12431421;28;20501;-33
2022/09/07 15:26:52;;;;;;;6.55;3.58;;;25.40;99.90;;;;;;12435534;28;20054;-33
2022/09/07 15:33:09;;;;;;;6.63;3.38;;;25.60;99.90;;;;;;12438858;28;20593;-33
2022/09/07 15:39:14;;;;;;;;;;;25.60;99.90;;;;;;12437960;28;20050;-33
2022/09/07 15:45:17;;;;;;;4.78;2.53;;;25.50;99.90;;;;;;12423706;28;20020;-33
2022/09/07 15:51:21;;;;;;;5.63;2.90;;;25.40;99.90;;;;;;12422206;28;20387;-33
2022/09/07 15:57:42;;;;;;;4.65;2.50;;;25.10;99.90;;;;;;12432970;28;20045;-32
2022/09/07 16:04:04;;;;;;;4.68;3.13;;;24.80;99.90;;;;;;12436421;28;20053;-33
2022/09/07 16:10:07;;;;;;;4.93;3.20;;;24.40;99.90;;;;;;12431366;28;20133;-32
2022/09/07 16:16:09;;;;;;;4.80;2.78;;;24.00;99.90;;;;;;12384693;28;20087;-32
2022/09/07 16:22:12;;;;;;;4.93;2.80;;;23.90;99.90;;;;;;12431090;28;20089;-32
2022/09/07 16:28:41;;;;;;;5.25;2.88;;;23.60;99.90;;;;;;12432140;28;20281;-33
2022/09/07 16:34:43;;;;;;;4.72;3.50;;;23.30;99.90;;;;;;12432791;28;20054;-33
2022/09/07 16:40:45;;;;;;;3.88;2.78;;;23.30;99.90;;;;;;12431510;28;20049;-33
2022/09/07 16:46:47;;;;;;;5.07;3.20;;;23.20;99.90;;;;;;12432031;28;20056;-32
2022/09/07 16:52:49;;;;;;;5.55;3.42;;;23.30;99.90;;;;;;12422997;28;20053;-32
2022/09/07 16:58:54;;;;;;;4.57;3.20;;;23.10;99.90;;;;;;12435398;28;20080;-33
2022/09/07 17:04:56;;;;;;;5.25;3.15;;;23.20;99.90;;;;;;12442028;28;20042;-32
2022/09/07 17:11:06;;;;;;;5.00;2.75;;;23.10;99.90;;;;;;12433998;28;20471;-33
2022/09/07 17:17:07;;;;;;;3.42;2.60;;;22.90;99.90;;;;;;12433700;28;20045;-33
2022/09/07 17:23:09;;;;;;;4.07;2.50;;;22.80;99.90;;;;;;12436295;28;20056;-32
2022/09/07 17:29:11;;;;;;;8.32;2.60;;;22.80;99.90;;;;;;12441712;28;20050;-33
2022/09/07 17:35:14;;;;;;;6.00;2.40;;;22.70;99.90;;;;;;12427386;28;20053;-32
2022/09/07 17:41:18;;;;;;;5.07;2.25;;;22.80;99.90;;;;;;12433114;28;20099;-32
2022/09/07 17:47:20;;;;;;;2.90;2.20;;;22.80;99.90;;;;;;12435681;28;20053;-33
2022/09/07 17:53:22;;;;;;;5.30;2.45;;;22.80;99.90;;;;;;12433875;28;20086;-33
2022/09/07 17:59:24;;;;;;;4.90;2.13;;;22.70;99.90;;;;;;12439837;28;20052;-32
2022/09/07 18:05:51;;;;;;;4.93;2.40;;;22.60;99.90;;;;;;12434025;28;20410;-33
2022/09/07 18:11:53;;;;;;;8.60;2.25;;;22.50;99.90;;;;;;12437719;28;20474;-32
2022/09/07 18:17:57;;;;;;;6.03;2.35;;;22.40;99.90;;;;;;12432188;28;20395;-32
2022/09/07 18:24:06;;;;;;;5.88;2.33;;;22.30;99.90;;;;;;12416839;28;20464;-32
2022/09/07 18:30:09;;;;;;;7.30;3.08;;;22.30;99.90;;;;;;12421529;28;20042;-32
2022/09/07 18:36:12;;;;;;;4.00;2.25;;;22.10;99.90;;;;;;12392596;28;20644;-32
2022/09/07 18:42:14;;;;;;;7.43;2.57;;;21.90;99.90;;;;;;12429763;28;20041;-32
2022/09/07 18:48:16;;;;;;;6.47;2.80;;;21.70;99.90;;;;;;12437362;28;20050;-32
2022/09/07 18:54:18;;;;;;;5.10;2.60;;;21.50;99.90;;;;;;12435270;28;20073;-32
2022/09/07 19:00:20;;;;;;;4.85;2.45;;;21.50;99.90;;;;;;12425868;28;20050;-32
2022/09/07 19:06:23;;;;;;;4.18;2.47;;;21.40;99.90;;;;;;12431761;28;20060;-33
2022/09/07 19:12:25;;;;;;;5.93;2.70;;;21.30;99.90;;;;;;12438092;28;20038;-32
2022/09/07 19:18:27;;;;;;;2.97;2.30;;;21.20;99.90;;;;;;12428518;28;20084;-32
2022/09/07 19:24:30;;;;;;;4.68;2.28;;;21.00;99.90;;;;;;12431198;28;20394;-33
2022/09/07 19:30:34;;;;;;;5.10;2.63;;;20.80;99.90;;;;;;12438645;28;20482;-32
2022/09/07 19:36:37;;;;;;;6.32;2.47;;;20.70;99.90;;;;;;12428103;28;20046;-32
2022/09/07 19:42:38;;;;;;;9.37;2.57;;;20.60;99.90;;;;;;12432112;28;20052;-32
2022/09/07 19:48:40;;;;;;;3.60;2.28;;;20.50;99.90;;;;;;12433537;28;20041;-32
2022/09/07 19:54:42;;;;;;;4.13;2.20;;;20.50;99.90;;;;;;12431606;28;20054;-32
2022/09/07 20:00:44;;;;;;;4.05;2.00;;;20.40;99.90;;;;;;12427961;28;20057;-33
2022/09/07 20:06:48;;;;;;;5.43;2.30;;;20.30;99.90;;;;;;12430359;28;20053;-33
2022/09/07 20:12:51;;;;;;;6.10;2.47;;;20.20;99.90;;;;;;12432474;28;20421;-32
2022/09/07 20:18:53;;;;;;;4.35;2.40;;;20.20;99.90;;;;;;12429441;28;20108;-32
2022/09/07 20:24:54;;;;;;;4.00;2.50;;;20.10;99.90;;;;;;12431618;28;20050;-32
2022/09/07 20:30:56;;;;;;;4.35;2.92;;;20.00;99.90;;;;;;12430978;28;20042;-32
2022/09/07 20:36:58;;;;;;;5.60;3.30;;;19.90;99.90;;;;;;12442105;28;20061;-32
2022/09/07 20:43:00;;;;;;;4.00;2.90;;;19.80;99.90;;;;;;12441858;28;20042;-33
2022/09/07 20:49:02;;;;;;;5.93;3.90;;;19.70;99.90;;;;;;12434201;28;20474;-32
2022/09/07 20:55:04;;;;;;;6.90;4.18;;;19.70;99.90;;;;;;12442031;28;20050;-32
2022/09/07 21:01:06;;;;;;;7.65;4.78;;;19.60;99.90;;;;;;12441470;28;20406;-33
2022/09/07 21:07:08;;;;;;;6.43;4.75;;;19.50;99.90;;;;;;12445636;28;20054;-33
2022/09/07 21:13:10;;;;;;;7.03;5.68;;;19.30;99.90;;;;;;12419505;28;20042;-32
2022/09/07 21:19:12;;;;;;;6.57;5.55;;;19.20;99.90;;;;;;12437076;28;20065;-33
2022/09/07 21:25:14;;;;;;;9.68;6.15;;;19.20;99.90;;;;;;12446581;28;20052;-32
2022/09/07 21:31:16;;;;;;;8.38;6.13;;;19.20;99.90;;;;;;12441043;28;20107;-32
2022/09/07 21:37:18;;;;;;;9.27;7.15;;;19.30;99.90;;;;;;12440197;28;20587;-32
2022/09/07 21:43:21;;;;;;;9.85;8.40;;;19.30;99.90;;;;;;12437629;28;20088;-32
2022/09/07 21:49:23;;;;;;;9.05;7.80;;;19.30;99.90;;;;;;12433935;28;20053;-32
2022/09/07 21:55:25;;;;;;;8.90;7.93;;;19.30;99.90;;;;;;12440555;28;20050;-32
2022/09/07 22:01:29;;;;;;;10.43;8.13;;;19.30;99.90;;;;;;12439994;28;20486;-32
2022/09/07 22:07:30;;;;;;;9.27;8.30;;;19.30;99.90;;;;;;12433801;28;20474;-32
2022/09/07 22:13:33;;;;;;;12.00;8.70;;;19.30;99.90;;;;;;12423830;28;20061;-32
2022/09/07 22:19:36;;;;;;;10.55;9.00;;;19.30;99.90;;;;;;12432064;28;20046;-32
2022/09/07 22:25:38;;;;;;;9.43;8.47;;;19.40;99.90;;;;;;12445442;28;20050;-32
2022/09/07 22:31:40;;;;;;;9.52;8.27;;;19.40;99.90;;;;;;12433246;28;20439;-32
2022/09/07 22:37:43;;;;;;;10.43;9.20;;;19.40;99.90;;;;;;12421063;28;20058;-32
2022/09/07 22:43:46;;;;;;;12.48;9.60;;;19.30;99.90;;;;;;12440545;28;20414;-32
2022/09/07 22:49:48;;;;;;;11.97;10.13;;;19.30;99.90;;;;;;12400536;28;20494;-32
2022/09/07 22:55:49;;;;;;;10.95;9.23;;;19.30;99.90;;;;;;12417264;28;20045;-32
2022/09/07 23:01:51;;;;;;;11.93;8.80;;;19.30;99.90;;;;;;12434779;28;20050;-33
2022/09/07 23:07:53;;;;;;;10.23;8.10;;;19.30;99.90;;;;;;12438882;28;20061;-32
2022/09/07 23:13:57;;;;;;;9.40;7.97;;;19.50;99.90;;;;;;12431330;28;20050;-32
2022/09/07 23:19:59;;;;;;;9.13;8.20;;;19.50;99.90;;;;;;12430378;28;20065;-32
2022/09/07 23:26:02;;;;;;;9.70;7.40;;;19.30;99.90;;;;;;12429820;28;20606;-32
2022/09/07 23:32:04;;;;;;;10.13;8.02;;;19.10;99.90;;;;;;12434694;28;20050;-32
2022/09/07 23:38:06;;;;;;;10.35;9.05;;;19.10;99.90;;;;;;12433822;28;20042;-32
2022/09/07 23:44:08;;;;;;;10.75;9.55;;;19.00;99.90;;;;;;12429244;28;20046;-32
2022/09/07 23:50:10;;;;;;;9.88;8.05;;;19.00;99.90;;;;;;12429309;28;20056;-32
2022/09/07 23:56:13;;;;;;;10.20;9.07;;;19.00;99.90;;;;;;12437573;28;20493;-32
